Terminal Aerodrome Forecast
Issued by NWS

Home | Current Version | Previous Version | Text Only | Print | Product List | Glossary On
Versions: 1 2 3 4 5 6 7 8 9 10 11 12 13 14 15 16 17 18 19 20 21 22 23 24 25 26 27 28 29 30 31 32 33 34 35 36 37
000
FTUS46 KLOX 312340
TAFLAX
TAF
KLAX 312340Z 0100/0206 23010KT P6SM BKN015 OVC025
     FM010400 26007KT P6SM OVC012
     FM010900 VRB03KT 4SM BR OVC008
     FM011700 27006KT 4SM HZ OVC012
     FM012000 26012KT P6SM SCT015
     FM020000 25010KT P6SM OVC012
     FM020300 26008KT P6SM OVC008=

USA.gov is the U.S. government's official web portal to all federal, state and local government web resources and services.